createdAt,value
2022-09-10T00:01:35.875Z,23.60
2022-09-10T00:04:06.844Z,22.40
2022-09-10T00:06:34.926Z,26.10
2022-09-10T00:09:01.696Z,23.20
2022-09-10T00:11:31.625Z,18.30
2022-09-10T00:14:00.872Z,20.50
2022-09-10T00:16:28.922Z,20.90
2022-09-10T00:18:59.889Z,20.10
2022-09-10T00:21:27.359Z,20.40
2022-09-10T00:23:53.874Z,24.50
2022-09-10T00:26:23.485Z,21.30
2022-09-10T00:28:53.508Z,22.00
2022-09-10T00:31:22.118Z,26.60
2022-09-10T00:33:50.326Z,23.00
2022-09-10T00:36:23.712Z,23.60
2022-09-10T00:38:51.736Z,32.20
2022-09-10T00:41:20.331Z,25.40
2022-09-10T00:43:55.144Z,23.60
2022-09-10T00:46:42.896Z,32.10
2022-09-10T00:49:20.704Z,24.00
2022-09-10T00:51:49.710Z,28.50
2022-09-10T00:54:19.729Z,22.90
2022-09-10T00:56:49.052Z,22.10
2022-09-10T00:59:20.722Z,28.10
2022-09-10T01:01:48.765Z,21.90
2022-09-10T01:04:15.505Z,27.60
2022-09-10T01:06:45.925Z,22.50
2022-09-10T01:09:13.841Z,25.50
2022-09-10T01:12:04.274Z,28.10
2022-09-10T01:14:53.909Z,31.40
2022-09-10T01:17:20.401Z,33.50
2022-09-10T01:19:56.168Z,34.90
2022-09-10T01:22:49.042Z,22.90
2022-09-10T01:28:17.273Z,21.90
2022-09-10T01:30:50.953Z,25.30
2022-09-10T01:33:42.505Z,24.60
2022-09-10T01:36:18.701Z,23.40
2022-09-10T01:38:46.290Z,34.70
2022-09-10T01:41:13.184Z,34.40
2022-09-10T01:43:42.407Z,29.60
2022-09-10T01:46:24.787Z,36.00
2022-09-10T01:51:46.120Z,28.40
2022-09-10T01:54:30.801Z,30.10
2022-09-10T01:57:14.481Z,21.00
2022-09-10T01:59:53.097Z,33.30
2022-09-10T02:02:51.644Z,34.70
2022-09-10T02:05:22.921Z,22.50
2022-09-10T02:08:04.777Z,40.30
2022-09-10T02:10:31.931Z,31.90
2022-09-10T02:12:59.136Z,45.40
2022-09-10T02:15:42.868Z,33.50
2022-09-10T02:18:22.891Z,30.00
2022-09-10T02:20:52.486Z,38.20
2022-09-10T02:23:24.253Z,24.60
2022-09-10T02:25:50.989Z,39.90
2022-09-10T02:28:17.991Z,34.70
2022-09-10T02:30:47.738Z,34.20
2022-09-10T02:33:18.112Z,30.40
2022-09-10T02:35:47.047Z,27.10
2022-09-10T02:38:13.822Z,26.30
2022-09-10T02:40:42.629Z,27.70
2022-09-10T02:43:09.645Z,26.10
2022-09-10T02:45:38.515Z,26.20
2022-09-10T02:48:05.098Z,28.70
2022-09-10T02:50:35.521Z,23.90
2022-09-10T02:53:02.624Z,26.80
2022-09-10T02:55:30.762Z,25.70
2022-09-10T02:57:57.877Z,23.60
2022-09-10T03:00:24.599Z,22.20
2022-09-10T03:02:51.418Z,23.50
2022-09-10T03:05:18.174Z,29.10
2022-09-10T03:07:44.936Z,23.40
2022-09-10T03:10:11.612Z,21.40
2022-09-10T03:12:38.746Z,24.00
2022-09-10T03:15:06.426Z,31.90
2022-09-10T03:17:33.273Z,27.20
2022-09-10T03:19:59.901Z,21.80
2022-09-10T03:22:26.671Z,20.80
2022-09-10T03:24:54.509Z,25.00
2022-09-10T03:27:22.244Z,30.80
2022-09-10T03:29:49.036Z,27.50
2022-09-10T03:32:15.795Z,26.20
2022-09-10T03:34:43.678Z,28.50
2022-09-10T03:37:10.239Z,25.60
2022-09-10T03:39:36.915Z,30.20
2022-09-10T03:42:04.610Z,22.90
2022-09-10T03:44:32.904Z,29.40
2022-09-10T03:47:00.380Z,33.10
2022-09-10T03:49:27.936Z,27.50
2022-09-10T03:51:55.333Z,29.00
2022-09-10T03:54:23.225Z,33.40
2022-09-10T03:56:50.982Z,25.60
2022-09-10T03:59:18.093Z,30.50
2022-09-10T04:01:45.192Z,28.50
2022-09-10T04:04:12.273Z,28.20
2022-09-10T04:06:40.001Z,20.50
2022-09-10T04:09:06.620Z,33.10
2022-09-10T04:11:33.226Z,28.50
2022-09-10T04:14:00.351Z,25.90
2022-09-10T04:16:27.956Z,29.90
2022-09-10T04:18:55.150Z,18.50
2022-09-10T04:21:22.695Z,29.50
2022-09-10T04:23:56.552Z,31.80
2022-09-10T04:26:24.805Z,31.30
2022-09-10T04:28:52.921Z,23.90
2022-09-10T04:31:19.967Z,26.80
2022-09-10T04:33:46.953Z,28.50
2022-09-10T04:36:15.164Z,30.60
2022-09-10T04:38:43.515Z,24.60
2022-09-10T04:41:14.918Z,32.20
2022-09-10T04:43:43.147Z,19.00
2022-09-10T04:46:10.117Z,35.60
2022-09-10T04:48:39.424Z,33.70
2022-09-10T04:51:16.092Z,35.50
2022-09-10T04:53:45.928Z,27.30
2022-09-10T04:56:12.847Z,23.70
2022-09-10T04:58:40.741Z,34.80
2022-09-10T05:01:08.229Z,29.90
2022-09-10T05:03:35.563Z,26.80
2022-09-10T05:06:04.384Z,24.10
2022-09-10T05:08:31.778Z,31.10
2022-09-10T05:11:02.290Z,26.40
2022-09-10T05:13:32.525Z,21.50
2022-09-10T05:16:00.523Z,24.90
2022-09-10T05:18:27.333Z,23.60
2022-09-10T05:20:54.175Z,25.20
2022-09-10T05:23:21.295Z,24.40
2022-09-10T05:25:48.187Z,25.10
2022-09-10T05:28:15.880Z,28.50
2022-09-10T05:30:49.513Z,29.00
2022-09-10T05:33:21.490Z,27.40
2022-09-10T05:35:52.003Z,32.30
2022-09-10T05:38:19.972Z,24.80
2022-09-10T05:40:47.671Z,33.40
2022-09-10T05:43:14.810Z,23.00
2022-09-10T05:45:43.578Z,34.80
2022-09-10T05:48:10.287Z,28.50
2022-09-10T05:50:38.013Z,28.30
2022-09-10T05:53:04.965Z,29.40
2022-09-10T05:55:32.736Z,23.50
2022-09-10T05:58:00.719Z,26.50
2022-09-10T06:00:27.544Z,30.20
2022-09-10T06:02:59.983Z,27.30
2022-09-10T06:05:31.561Z,37.50
2022-09-10T06:07:59.292Z,32.00
2022-09-10T06:10:26.081Z,25.30
2022-09-10T06:12:52.786Z,21.60
2022-09-10T06:15:20.641Z,21.30
2022-09-10T06:17:49.122Z,24.00
2022-09-10T06:20:19.745Z,27.80
2022-09-10T06:22:46.878Z,29.00
2022-09-10T06:25:13.840Z,27.40
2022-09-10T06:27:41.022Z,29.30
2022-09-10T06:30:08.321Z,27.50
2022-09-10T06:32:38.641Z,21.00
2022-09-10T06:35:05.918Z,29.90
2022-09-10T06:37:33.960Z,20.90
2022-09-10T06:40:03.335Z,21.10
2022-09-10T06:42:31.573Z,21.40
2022-09-10T06:45:13.362Z,20.30
2022-09-10T06:50:58.717Z,18.50
2022-09-10T06:53:33.401Z,29.10
2022-09-10T06:56:03.013Z,20.90
2022-09-10T06:58:36.392Z,23.80
2022-09-10T07:01:22.194Z,21.50
2022-09-10T07:03:58.412Z,21.40
2022-09-10T07:06:29.102Z,21.90
2022-09-10T07:09:04.445Z,28.60
2022-09-10T07:11:40.694Z,24.00
2022-09-10T07:14:13.252Z,27.10
2022-09-10T07:16:44.971Z,21.80
2022-09-10T07:19:14.463Z,23.90
2022-09-10T07:21:44.244Z,23.70
2022-09-10T07:24:13.885Z,25.10
2022-09-10T07:26:47.273Z,21.10
2022-09-10T07:29:13.841Z,16.70
2022-09-10T07:31:41.098Z,20.80
2022-09-10T07:34:12.175Z,28.20
2022-09-10T07:36:38.750Z,20.40
2022-09-10T07:39:05.406Z,14.20
2022-09-10T07:41:35.430Z,16.40
2022-09-10T07:44:04.780Z,13.90
2022-09-10T07:46:37.423Z,26.00
2022-09-10T07:49:08.824Z,33.30
2022-09-10T07:51:35.854Z,23.00
2022-09-10T07:54:02.801Z,23.10
2022-09-10T07:56:37.383Z,16.20
2022-09-10T07:59:06.586Z,15.80
2022-09-10T08:01:41.962Z,16.30
2022-09-10T08:04:09.260Z,14.00
2022-09-10T08:06:37.186Z,14.90
2022-09-10T08:09:06.643Z,12.70
2022-09-10T08:11:34.514Z,16.10
2022-09-10T08:14:04.182Z,12.50
2022-09-10T08:16:32.507Z,12.50
2022-09-10T08:19:04.885Z,16.00
2022-09-10T08:21:31.996Z,12.10
2022-09-10T08:24:02.105Z,13.90
2022-09-10T08:26:32.980Z,17.60
2022-09-10T08:29:02.236Z,22.60
2022-09-10T08:31:29.092Z,16.30
2022-09-10T08:34:01.653Z,19.00
2022-09-10T08:36:28.918Z,13.20
2022-09-10T08:39:00.728Z,13.60
2022-09-10T08:41:39.178Z,10.50
2022-09-10T08:44:12.978Z,12.70
2022-09-10T08:46:48.761Z,11.60
2022-09-10T08:49:29.606Z,12.20
2022-09-10T08:52:26.606Z,12.70
2022-09-10T08:55:15.104Z,12.20
2022-09-10T08:57:48.350Z,10.40
2022-09-10T09:00:20.798Z,11.30
2022-09-10T09:03:12.098Z,12.60
2022-09-10T09:05:48.519Z,9.90
2022-09-10T09:08:21.214Z,12.40
2022-09-10T09:10:55.943Z,9.60
2022-09-10T09:13:22.533Z,13.30
2022-09-10T09:15:58.829Z,9.90
2022-09-10T09:18:47.587Z,12.90
2022-09-10T09:21:27.128Z,10.50
2022-09-10T09:24:12.786Z,11.10
2022-09-10T09:26:49.372Z,13.40
2022-09-10T09:29:25.089Z,11.10
2022-09-10T09:31:59.972Z,13.00
2022-09-10T09:34:35.770Z,9.80
2022-09-10T09:37:11.906Z,17.00
2022-09-10T09:40:06.048Z,10.50
2022-09-10T09:42:58.702Z,11.00
2022-09-10T09:45:42.698Z,14.30
2022-09-10T09:48:15.329Z,10.40
2022-09-10T09:50:45.974Z,8.80
2022-09-10T09:53:19.870Z,10.80
2022-09-10T09:55:51.455Z,11.60
2022-09-10T09:58:21.167Z,13.60
2022-09-10T10:01:02.968Z,9.50
2022-09-10T10:03:42.053Z,12.60
2022-09-10T10:06:11.665Z,9.80
2022-09-10T10:08:57.072Z,12.60
2022-09-10T10:11:41.592Z,10.80
2022-09-10T10:14:37.593Z,14.60
2022-09-10T10:17:31.900Z,11.20
2022-09-10T10:20:17.058Z,15.20
2022-09-10T10:22:45.919Z,14.60
2022-09-10T10:25:36.000Z,17.60
2022-09-10T10:28:03.075Z,11.80
2022-09-10T10:30:31.492Z,12.60
2022-09-10T10:33:04.588Z,12.50
2022-09-10T10:35:43.646Z,9.60
2022-09-10T10:38:31.281Z,16.60
2022-09-10T10:41:30.396Z,11.60
2022-09-10T10:45:17.209Z,12.30
2022-09-10T10:48:50.798Z,9.70
2022-09-10T10:51:49.144Z,11.40
2022-09-10T10:55:11.170Z,9.30
2022-09-10T11:01:39.048Z,8.70
2022-09-10T11:09:40.299Z,11.10
2022-09-10T11:12:32.030Z,15.40
2022-09-10T11:15:16.563Z,11.50
2022-09-10T11:18:12.964Z,9.40
2022-09-10T11:21:42.437Z,11.60
2022-09-10T11:24:24.248Z,11.50
2022-09-10T11:27:10.464Z,17.70
2022-09-10T11:30:04.376Z,10.80
2022-09-10T11:32:40.720Z,10.20
2022-09-10T11:35:57.615Z,12.00
2022-09-10T11:39:32.783Z,11.80
2022-09-10T11:42:17.645Z,8.90
2022-09-10T11:45:32.448Z,10.80
2022-09-10T11:48:36.114Z,9.50
2022-09-10T11:51:23.546Z,9.80
2022-09-10T11:53:54.836Z,6.20
2022-09-10T11:56:59.174Z,6.80
2022-09-10T11:59:50.288Z,5.80
2022-09-10T12:04:02.542Z,7.50
2022-09-10T12:10:35.427Z,6.60
2022-09-10T12:17:48.448Z,9.70
2022-09-10T12:29:02.556Z,8.80
2022-09-10T12:32:09.796Z,6.70
2022-09-10T12:34:58.230Z,5.20
2022-09-10T12:37:45.624Z,5.30
2022-09-10T12:40:29.959Z,7.80
2022-09-10T12:43:39.683Z,6.40
2022-09-10T12:46:09.361Z,6.00
2022-09-10T12:48:46.955Z,4.80
2022-09-10T12:51:16.486Z,5.30
2022-09-10T12:54:31.283Z,10.40
2022-09-10T12:57:19.907Z,7.50
2022-09-10T12:59:58.429Z,9.20
2022-09-10T13:02:30.539Z,7.70
2022-09-10T13:05:22.123Z,8.00
2022-09-10T13:08:18.061Z,7.10
2022-09-10T13:11:05.165Z,11.40
2022-09-10T13:13:44.714Z,12.80
2022-09-10T13:16:34.545Z,8.70
2022-09-10T13:19:13.379Z,6.40
2022-09-10T13:21:40.229Z,6.70
2022-09-10T13:24:36.398Z,7.70
2022-09-10T13:27:12.381Z,6.20
2022-09-10T13:30:11.229Z,6.10
2022-09-10T13:32:46.373Z,5.90
2022-09-10T13:35:16.775Z,11.10
2022-09-10T13:38:01.797Z,7.20
2022-09-10T13:40:45.020Z,11.20
2022-09-10T13:43:30.633Z,11.30
2022-09-10T13:46:02.176Z,9.80
2022-09-10T13:48:43.140Z,11.00
2022-09-10T13:51:32.802Z,8.80
2022-09-10T13:54:25.056Z,8.20
2022-09-10T13:56:54.164Z,9.20
2022-09-10T13:59:30.579Z,6.50
2022-09-10T14:01:59.043Z,6.40
2022-09-10T14:04:31.518Z,8.40
2022-09-10T14:07:22.585Z,11.50
2022-09-10T14:09:56.302Z,7.40
2022-09-10T14:12:27.617Z,6.90
2022-09-10T14:14:59.784Z,8.10
2022-09-10T14:17:50.314Z,11.30
2022-09-10T14:20:17.519Z,10.70
2022-09-10T14:22:44.783Z,9.80
2022-09-10T14:25:30.879Z,7.30
2022-09-10T14:28:16.389Z,6.10
2022-09-10T14:30:44.770Z,6.90
2022-09-10T14:33:29.307Z,6.10
2022-09-10T14:35:58.455Z,8.70
2022-09-10T14:38:35.757Z,8.00
2022-09-10T14:41:18.083Z,8.00
2022-09-10T14:43:45.319Z,7.00
2022-09-10T14:46:34.388Z,8.00
2022-09-10T14:49:10.579Z,6.70
2022-09-10T14:51:37.295Z,5.90
2022-09-10T14:54:04.246Z,8.00
2022-09-10T14:56:40.599Z,8.40
2022-09-10T14:59:21.874Z,6.90
2022-09-10T15:01:49.046Z,6.00
2022-09-10T15:04:18.727Z,5.30
2022-09-10T15:06:45.652Z,5.40
2022-09-10T15:09:14.305Z,7.20
2022-09-10T15:11:48.799Z,4.20
2022-09-10T15:14:17.789Z,4.70
2022-09-10T15:16:44.741Z,4.80
2022-09-10T15:19:11.449Z,3.90
2022-09-10T15:21:39.665Z,4.30
2022-09-10T15:24:07.395Z,5.30
2022-09-10T15:26:34.250Z,4.30
2022-09-10T15:29:01.292Z,6.50
2022-09-10T15:31:32.487Z,6.20
2022-09-10T15:33:59.686Z,7.80
2022-09-10T15:36:27.859Z,5.80
2022-09-10T15:38:55.367Z,5.10
2022-09-10T15:41:22.874Z,5.90
2022-09-10T15:43:50.449Z,5.50
2022-09-10T15:46:18.008Z,5.60
2022-09-10T15:48:46.898Z,6.00
2022-09-10T15:51:16.631Z,5.50
2022-09-10T15:53:43.651Z,5.90
2022-09-10T15:56:11.493Z,6.20
2022-09-10T15:58:39.167Z,6.70
2022-09-10T16:01:11.541Z,7.20
2022-09-10T16:03:46.217Z,10.20
2022-09-10T16:06:15.082Z,13.80
2022-09-10T16:08:41.963Z,7.70
2022-09-10T16:11:13.120Z,7.90
2022-09-10T16:13:40.948Z,10.10
2022-09-10T16:16:11.537Z,7.30
2022-09-10T16:18:38.545Z,7.50
2022-09-10T16:21:12.948Z,10.00
2022-09-10T16:23:41.742Z,7.50
2022-09-10T16:26:15.302Z,6.80
2022-09-10T16:28:57.273Z,13.50
2022-09-10T16:31:28.175Z,10.60
2022-09-10T16:33:58.130Z,6.90
2022-09-10T16:36:26.693Z,7.20
2022-09-10T16:38:55.777Z,10.20
2022-09-10T16:41:24.310Z,6.70
2022-09-10T16:43:52.123Z,8.40
2022-09-10T16:50:35.036Z,9.90
2022-09-10T16:53:02.141Z,10.20
2022-09-10T16:55:29.614Z,9.00
2022-09-10T16:57:57.135Z,12.40
2022-09-10T17:00:27.684Z,11.40
2022-09-10T17:02:58.639Z,8.70
2022-09-10T17:05:26.068Z,15.10
2022-09-10T17:07:52.989Z,12.30
2022-09-10T17:10:20.135Z,10.40
2022-09-10T17:12:46.863Z,14.10
2022-09-10T17:15:14.859Z,15.10
2022-09-10T17:17:41.669Z,9.20
2022-09-10T17:20:09.022Z,11.20
2022-09-10T17:22:35.893Z,11.50
2022-09-10T17:25:02.865Z,14.50
2022-09-10T17:27:32.635Z,12.00
2022-09-10T17:29:59.714Z,9.30
2022-09-10T17:32:26.695Z,11.00
2022-09-10T17:34:55.896Z,16.40
2022-09-10T17:37:23.972Z,12.70
2022-09-10T17:39:54.064Z,10.40
2022-09-10T17:42:23.328Z,10.10
2022-09-10T17:44:54.224Z,10.30
2022-09-10T17:47:29.160Z,12.30
2022-09-10T17:50:03.949Z,9.10
2022-09-10T17:52:32.498Z,9.10
2022-09-10T17:58:32.149Z,11.90
2022-09-10T18:01:07.352Z,9.20
2022-09-10T18:03:35.961Z,9.70
2022-09-10T18:06:10.365Z,9.40
2022-09-10T18:08:45.592Z,9.40
2022-09-10T18:11:24.839Z,11.60
2022-09-10T18:14:01.569Z,7.70
2022-09-10T18:16:31.780Z,14.10
2022-09-10T18:19:01.482Z,9.60
2022-09-10T18:21:34.997Z,7.30
2022-09-10T18:24:16.687Z,12.20
2022-09-10T18:26:46.705Z,7.80
2022-09-10T18:29:21.324Z,5.30
2022-09-10T18:31:51.714Z,8.10
2022-09-10T18:34:26.639Z,7.20
2022-09-10T18:37:01.683Z,9.00
2022-09-10T18:39:33.447Z,8.70
2022-09-10T18:42:00.814Z,11.00
2022-09-10T18:44:33.711Z,6.80
2022-09-10T18:47:00.919Z,10.20
2022-09-10T18:49:28.795Z,9.10
2022-09-10T18:51:58.597Z,7.10
2022-09-10T18:54:29.652Z,11.20
2022-09-10T18:56:59.790Z,6.10
2022-09-10T18:59:29.446Z,7.90
2022-09-10T19:02:16.343Z,11.00
2022-09-10T19:05:12.596Z,8.40
2022-09-10T19:07:40.488Z,7.10
2022-09-10T19:10:13.755Z,6.60
2022-09-10T19:12:53.933Z,8.00
2022-09-10T19:15:33.255Z,9.50
2022-09-10T19:18:06.555Z,6.80
2022-09-10T19:20:37.572Z,4.80
2022-09-10T19:23:20.607Z,8.30
2022-09-10T19:26:00.486Z,7.60
2022-09-10T19:28:47.113Z,4.80
2022-09-10T19:31:22.559Z,6.30
2022-09-10T19:34:01.333Z,4.90
2022-09-10T19:36:33.071Z,4.60
2022-09-10T19:39:13.767Z,5.50
2022-09-10T19:41:43.216Z,5.10
2022-09-10T19:44:13.518Z,4.60
2022-09-10T19:46:41.089Z,8.50
2022-09-10T19:49:09.844Z,4.80
2022-09-10T19:51:39.042Z,8.70
2022-09-10T19:54:06.531Z,5.20
2022-09-10T19:56:37.491Z,7.00
2022-09-10T19:59:14.118Z,4.60
2022-09-10T20:01:43.309Z,5.20
2022-09-10T20:04:15.644Z,6.30
2022-09-10T20:06:50.038Z,6.00
2022-09-10T20:09:18.610Z,6.00
2022-09-10T20:11:46.920Z,4.50
2022-09-10T20:14:14.478Z,6.00
2022-09-10T20:16:44.257Z,11.80
2022-09-10T20:19:14.308Z,7.90
2022-09-10T20:21:41.760Z,5.50
2022-09-10T20:24:10.348Z,6.10
2022-09-10T20:26:41.369Z,7.70
2022-09-10T20:29:13.918Z,6.30
2022-09-10T20:31:45.803Z,6.10
2022-09-10T20:34:20.348Z,6.80
2022-09-10T20:36:52.059Z,5.60
2022-09-10T20:39:26.556Z,6.40
2022-09-10T20:41:57.466Z,5.50
2022-09-10T20:44:25.599Z,8.10
2022-09-10T20:46:53.157Z,7.50
2022-09-10T20:49:23.756Z,7.00
2022-09-10T20:51:55.036Z,4.90
2022-09-10T20:54:22.551Z,9.60
2022-09-10T20:56:52.266Z,5.00
2022-09-10T20:59:20.837Z,11.30
2022-09-10T21:04:19.391Z,4.30
2022-09-10T21:06:46.090Z,8.80
2022-09-10T21:09:13.037Z,6.10
2022-09-10T21:11:39.952Z,8.70
2022-09-10T21:14:07.794Z,14.00
2022-09-10T21:16:40.860Z,14.10
2022-09-10T21:19:11.531Z,8.90
2022-09-10T21:21:39.600Z,6.70
2022-09-10T21:24:17.822Z,5.50
2022-09-10T21:26:44.747Z,8.00
2022-09-10T21:29:19.245Z,7.80
2022-09-10T21:31:46.902Z,13.60
2022-09-10T21:34:14.224Z,5.30
2022-09-10T21:36:41.598Z,5.90
2022-09-10T21:39:13.972Z,5.50
2022-09-10T21:41:48.647Z,6.40
2022-09-10T21:44:19.191Z,7.30
2022-09-10T21:46:48.071Z,6.20
2022-09-10T21:49:15.368Z,8.70
2022-09-10T21:51:42.735Z,12.10
2022-09-10T21:54:19.950Z,9.70
2022-09-10T21:56:50.303Z,7.00
2022-09-10T21:59:20.086Z,9.20
2022-09-10T22:01:48.087Z,10.40
2022-09-10T22:04:21.514Z,10.70
2022-09-10T22:06:54.064Z,6.60
2022-09-10T22:09:21.396Z,8.60
2022-09-10T22:11:51.437Z,5.10
2022-09-10T22:14:22.733Z,8.80
2022-09-10T22:16:50.136Z,10.50
2022-09-10T22:19:21.457Z,4.90
2022-09-10T22:21:49.639Z,7.60
2022-09-10T22:24:19.243Z,8.40
2022-09-10T22:26:46.823Z,6.50
2022-09-10T22:29:19.869Z,9.60
2022-09-10T22:31:47.920Z,8.10
2022-09-10T22:34:16.820Z,8.50
2022-09-10T22:36:45.389Z,9.40
2022-09-10T22:39:23.231Z,8.30
2022-09-10T22:41:50.854Z,7.10
2022-09-10T22:44:19.329Z,7.50
2022-09-10T22:46:46.478Z,8.90
2022-09-10T22:49:16.550Z,8.60
2022-09-10T22:51:45.295Z,11.10
2022-09-10T22:54:12.466Z,7.20
2022-09-10T22:56:39.442Z,9.40
2022-09-10T22:59:10.702Z,7.20
2022-09-10T23:01:38.619Z,6.80
2022-09-10T23:04:07.152Z,8.70
2022-09-10T23:06:37.308Z,11.60
2022-09-10T23:09:11.762Z,7.20
2022-09-10T23:11:40.152Z,10.10
2022-09-10T23:14:10.873Z,4.70
2022-09-10T23:16:43.728Z,11.80
2022-09-10T23:19:15.808Z,5.60
2022-09-10T23:21:46.361Z,6.50
2022-09-10T23:24:16.659Z,7.80
2022-09-10T23:26:46.938Z,6.70
2022-09-10T23:29:18.042Z,7.70
2022-09-10T23:31:46.245Z,6.30
2022-09-10T23:34:15.688Z,4.60
2022-09-10T23:36:44.839Z,5.70
2022-09-10T23:39:22.927Z,8.30
2022-09-10T23:41:52.296Z,10.30
2022-09-10T23:44:19.790Z,6.70
2022-09-10T23:46:46.583Z,9.70
2022-09-10T23:49:13.661Z,9.70
2022-09-10T23:51:40.568Z,7.00
2022-09-10T23:54:08.424Z,9.80
2022-09-10T23:56:35.051Z,6.30
2022-09-10T23:59:02.915Z,10.10
